Time;durP1;ratioP1;P1;durP2;ratioP2;P2;SDS_P1;SDS_P2;PMS_P1;PMS_P2;Temp;Humidity;BMP_temperature;BMP_pressure;BME280_temperature;BME280_humidity;BME280_pressure;Samples;Min_cycle;Max_cycle;Signal;HPM_P1;HPM_P2
2023/08/15 00:03:23;;;;;;;13.23;11.70;;;;;;;;;;10550734;28;20461;-86
2023/08/15 00:08:25;;;;;;;14.05;12.48;;;;;;;;;;10562523;28;20407;-86
2023/08/15 00:13:29;;;;;;;14.27;12.77;;;;;;;;;;10562742;28;20387;-86
2023/08/15 00:18:31;;;;;;;14.20;12.90;;;;;;;;;;10554038;28;20444;-86
2023/08/15 00:23:34;;;;;;;13.73;11.85;;;;;;;;;;10558798;28;20424;-87
2023/08/15 00:28:37;;;;;;;13.13;11.73;;;;;;;;;;10550660;28;20408;-87
2023/08/15 00:33:40;;;;;;;12.52;11.23;;;;;;;;;;10554678;28;20409;-87
2023/08/15 00:38:42;;;;;;;12.70;10.93;;;;;;;;;;10561692;28;20459;-86
2023/08/15 00:43:46;;;;;;;10.33;9.43;;;;;;;;;;10550982;28;20396;-86
2023/08/15 00:48:48;;;;;;;9.88;8.88;;;;;;;;;;10559942;28;20808;-87
2023/08/15 00:53:52;;;;;;;9.60;8.60;;;;;;;;;;10557535;28;20874;-86
2023/08/15 00:58:55;;;;;;;9.73;8.73;;;;;;;;;;10553582;28;20449;-86
2023/08/15 01:03:59;;;;;;;8.95;8.10;;;;;;;;;;10564567;28;20878;-87
2023/08/15 01:09:02;;;;;;;8.48;7.68;;;;;;;;;;10560869;28;20470;-87
2023/08/15 01:14:09;;;;;;;10.05;7.80;;;;;;;;;;10555458;28;20935;-86
2023/08/15 01:19:26;;;;;;;8.27;7.40;;;;;;;;;;10548631;28;20415;-86
2023/08/15 01:24:30;;;;;;;8.82;7.35;;;;;;;;;;10540189;28;20412;-87
2023/08/15 01:29:33;;;;;;;7.85;7.15;;;;;;;;;;10553775;28;20392;-85
2023/08/15 01:34:40;;;;;;;8.13;7.00;;;;;;;;;;10557146;28;20465;-86
2023/08/15 01:39:48;;;;;;;8.45;7.38;;;;;;;;;;10556678;28;20424;-86
2023/08/15 01:44:51;;;;;;;9.15;7.25;;;;;;;;;;10561473;28;20458;-86
2023/08/15 01:49:53;;;;;;;9.10;7.43;;;;;;;;;;10561545;28;20437;-86
2023/08/15 01:54:57;;;;;;;9.27;7.93;;;;;;;;;;10556098;28;20435;-87
2023/08/15 01:59:59;;;;;;;8.20;7.40;;;;;;;;;;10553084;28;20418;-87
2023/08/15 02:05:02;;;;;;;9.02;8.13;;;;;;;;;;10556358;28;20735;-87
2023/08/15 02:10:06;;;;;;;11.00;8.30;;;;;;;;;;10558556;27;20733;-87
2023/08/15 02:15:09;;;;;;;9.60;8.40;;;;;;;;;;10560876;28;20391;-86
2023/08/15 02:20:12;;;;;;;8.63;7.72;;;;;;;;;;10560306;28;20428;-86
2023/08/15 02:25:16;;;;;;;8.52;7.60;;;;;;;;;;10559937;28;20396;-86
2023/08/15 02:30:18;;;;;;;7.75;7.05;;;;;;;;;;10566759;28;20425;-86
2023/08/15 02:35:21;;;;;;;8.10;7.28;;;;;;;;;;10561859;28;20403;-86
2023/08/15 02:40:26;;;;;;;8.27;7.53;;;;;;;;;;10566096;28;20423;-86
2023/08/15 02:45:28;;;;;;;8.02;7.00;;;;;;;;;;10557099;28;20420;-87
2023/08/15 02:50:31;;;;;;;7.25;6.53;;;;;;;;;;10562260;28;20403;-85
2023/08/15 02:55:35;;;;;;;8.88;7.20;;;;;;;;;;10558128;28;20416;-86
2023/08/15 03:00:38;;;;;;;8.73;6.85;;;;;;;;;;10554987;28;20399;-86
2023/08/15 03:05:40;;;;;;;8.70;7.00;;;;;;;;;;10550128;28;20465;-86
2023/08/15 03:10:44;;;;;;;7.72;6.97;;;;;;;;;;10556985;28;20460;-85
2023/08/15 03:15:52;;;;;;;8.60;7.20;;;;;;;;;;10553883;28;20764;-87
2023/08/15 03:20:58;;;;;;;7.30;6.60;;;;;;;;;;10557511;28;20404;-86
2023/08/15 03:26:03;;;;;;;7.88;6.85;;;;;;;;;;10555962;28;20448;-85
2023/08/15 03:31:06;;;;;;;7.90;6.70;;;;;;;;;;10556193;28;20395;-86
2023/08/15 03:36:08;;;;;;;7.50;6.80;;;;;;;;;;10560688;28;20420;-87
2023/08/15 03:41:12;;;;;;;7.32;6.50;;;;;;;;;;10567541;28;20403;-86
2023/08/15 03:46:15;;;;;;;8.32;7.53;;;;;;;;;;10557390;28;20396;-87
2023/08/15 03:51:17;;;;;;;7.97;6.90;;;;;;;;;;10562190;28;20436;-87
2023/08/15 03:56:21;;;;;;;9.43;7.17;;;;;;;;;;10557295;28;20412;-86
2023/08/15 04:01:23;;;;;;;7.07;6.40;;;;;;;;;;10559175;28;20483;-87
2023/08/15 04:06:25;;;;;;;7.67;6.73;;;;;;;;;;10558963;28;20499;-86
2023/08/15 04:11:29;;;;;;;8.00;7.10;;;;;;;;;;10562855;28;20411;-84
2023/08/15 04:16:31;;;;;;;8.18;7.05;;;;;;;;;;10565019;28;20414;-87
2023/08/15 04:21:33;;;;;;;7.93;7.23;;;;;;;;;;10550488;28;20395;-86
2023/08/15 04:26:37;;;;;;;7.63;6.90;;;;;;;;;;10552587;28;20398;-86
2023/08/15 04:31:41;;;;;;;8.10;7.20;;;;;;;;;;10559582;28;20996;-86
2023/08/15 04:36:46;;;;;;;7.68;6.97;;;;;;;;;;10553747;28;20448;-86
2023/08/15 04:41:50;;;;;;;8.05;7.05;;;;;;;;;;10552759;28;20868;-84
2023/08/15 04:46:52;;;;;;;8.07;6.82;;;;;;;;;;10561845;28;20458;-86
2023/08/15 04:51:54;;;;;;;8.00;7.00;;;;;;;;;;10555082;28;20430;-86
2023/08/15 04:56:59;;;;;;;7.90;7.10;;;;;;;;;;10552670;28;20507;-86
2023/08/15 05:02:01;;;;;;;7.75;6.95;;;;;;;;;;10549861;28;20481;-86
2023/08/15 05:07:03;;;;;;;7.78;7.07;;;;;;;;;;10553521;28;20876;-87
2023/08/15 05:12:07;;;;;;;7.83;7.13;;;;;;;;;;10545432;28;20400;-86
2023/08/15 05:17:10;;;;;;;9.77;7.20;;;;;;;;;;10552560;28;20477;-85
2023/08/15 05:22:12;;;;;;;7.85;7.03;;;;;;;;;;10554103;28;20456;-86
2023/08/15 05:27:16;;;;;;;9.43;7.18;;;;;;;;;;10553633;28;20803;-86
2023/08/15 05:32:18;;;;;;;8.10;6.85;;;;;;;;;;10552521;28;20404;-85
2023/08/15 05:37:20;;;;;;;8.57;7.10;;;;;;;;;;10568123;28;20882;-87
2023/08/15 05:42:24;;;;;;;8.32;7.55;;;;;;;;;;10561802;28;20404;-87
2023/08/15 05:47:26;;;;;;;7.82;7.03;;;;;;;;;;10560596;28;20409;-85
2023/08/15 05:52:29;;;;;;;8.70;7.80;;;;;;;;;;10556692;28;20449;-86
2023/08/15 05:57:32;;;;;;;8.60;7.70;;;;;;;;;;10555943;28;20440;-86
2023/08/15 06:02:38;;;;;;;8.63;7.65;;;;;;;;;;10555708;28;20455;-86
2023/08/15 06:07:41;;;;;;;8.65;7.53;;;;;;;;;;10564485;28;20468;-86
2023/08/15 06:12:45;;;;;;;8.18;7.43;;;;;;;;;;10561683;28;20398;-86
2023/08/15 06:17:47;;;;;;;7.80;7.00;;;;;;;;;;10558816;28;20442;-85
2023/08/15 06:22:50;;;;;;;8.70;7.72;;;;;;;;;;10566457;28;20396;-86
2023/08/15 06:27:54;;;;;;;8.17;7.37;;;;;;;;;;10559034;28;20462;-85
2023/08/15 06:32:56;;;;;;;8.63;7.43;;;;;;;;;;10566478;28;20401;-86
2023/08/15 06:37:58;;;;;;;8.60;7.70;;;;;;;;;;10554654;28;20427;-86
2023/08/15 06:43:02;;;;;;;7.40;6.80;;;;;;;;;;10558963;28;20408;-86
2023/08/15 06:48:05;;;;;;;8.50;7.70;;;;;;;;;;10558376;28;20434;-86
2023/08/15 06:53:08;;;;;;;7.63;6.83;;;;;;;;;;10561985;28;20800;-86
2023/08/15 06:58:12;;;;;;;8.20;7.50;;;;;;;;;;10558578;28;20465;-87
2023/08/15 07:03:15;;;;;;;8.02;6.90;;;;;;;;;;10561547;28;20406;-86
2023/08/15 07:08:18;;;;;;;9.23;7.10;;;;;;;;;;10560801;28;20874;-84
2023/08/15 07:13:21;;;;;;;8.48;7.20;;;;;;;;;;10560799;28;20404;-87
2023/08/15 07:18:24;;;;;;;8.23;7.43;;;;;;;;;;10564286;28;20473;-86
2023/08/15 07:23:27;;;;;;;7.50;6.80;;;;;;;;;;10556567;28;20406;-86
2023/08/15 07:28:31;;;;;;;6.77;6.17;;;;;;;;;;10562833;28;20398;-87
2023/08/15 07:33:33;;;;;;;6.78;6.18;;;;;;;;;;10559701;28;20465;-87
2023/08/15 07:38:35;;;;;;;8.43;6.60;;;;;;;;;;10556032;28;20982;-87
2023/08/15 07:43:39;;;;;;;7.10;6.00;;;;;;;;;;10560295;28;20464;-86
2023/08/15 07:48:42;;;;;;;6.45;5.82;;;;;;;;;;10556361;28;20941;-87
2023/08/15 07:53:44;;;;;;;6.95;6.25;;;;;;;;;;10553896;28;20408;-87
2023/08/15 07:58:48;;;;;;;6.45;5.85;;;;;;;;;;10563036;28;20414;-87
2023/08/15 08:03:50;;;;;;;6.13;5.63;;;;;;;;;;10556059;28;20410;-88
2023/08/15 08:08:53;;;;;;;6.45;5.90;;;;;;;;;;10551492;28;20648;-87
2023/08/15 08:13:56;;;;;;;6.68;6.07;;;;;;;;;;10554444;28;20404;-87
2023/08/15 08:18:59;;;;;;;6.40;5.90;;;;;;;;;;10563284;28;20414;-87
2023/08/15 08:24:01;;;;;;;6.53;5.90;;;;;;;;;;10558384;27;20404;-88
2023/08/15 08:29:05;;;;;;;6.80;6.10;;;;;;;;;;10545935;28;20408;-87
2023/08/15 08:34:13;;;;;;;6.22;5.68;;;;;;;;;;10567146;28;20455;-87
2023/08/15 08:39:15;;;;;;;6.25;5.53;;;;;;;;;;10543868;28;20408;-88
2023/08/15 08:44:20;;;;;;;6.32;5.82;;;;;;;;;;10558459;28;20402;-87
2023/08/15 08:49:26;;;;;;;6.30;5.80;;;;;;;;;;10558874;28;20416;-87
2023/08/15 08:54:29;;;;;;;6.13;5.60;;;;;;;;;;10566286;28;20452;-88
2023/08/15 08:59:36;;;;;;;6.73;6.03;;;;;;;;;;10555596;28;20418;-88
2023/08/15 09:04:38;;;;;;;5.83;5.30;;;;;;;;;;10555342;28;20452;-87
2023/08/15 09:09:40;;;;;;;6.20;5.70;;;;;;;;;;10556773;28;20514;-86
2023/08/15 09:14:44;;;;;;;7.80;5.67;;;;;;;;;;10567016;28;20404;-87
2023/08/15 09:19:46;;;;;;;7.75;6.05;;;;;;;;;;10556132;28;21041;-88
2023/08/15 09:24:50;;;;;;;7.22;5.50;;;;;;;;;;10567363;28;20462;-88
2023/08/15 09:29:53;;;;;;;6.18;5.65;;;;;;;;;;10566740;28;20462;-87
2023/08/15 09:34:55;;;;;;;6.63;5.80;;;;;;;;;;10562928;28;20450;-87
2023/08/15 09:39:58;;;;;;;6.47;5.88;;;;;;;;;;10560207;28;20450;-87
2023/08/15 09:45:03;;;;;;;6.03;5.53;;;;;;;;;;10564950;28;20411;-86
2023/08/15 09:50:07;;;;;;;6.10;5.50;;;;;;;;;;10561097;28;20412;-87
2023/08/15 09:55:10;;;;;;;6.32;5.80;;;;;;;;;;10568059;28;20405;-88
2023/08/15 10:00:16;;;;;;;5.90;5.50;;;;;;;;;;10568880;28;20414;-87
2023/08/15 10:05:22;;;;;;;6.38;5.78;;;;;;;;;;10564453;28;20504;-87
2023/08/15 10:10:25;;;;;;;6.30;5.70;;;;;;;;;;10561645;28;20419;-87
2023/08/15 10:15:30;;;;;;;6.38;5.78;;;;;;;;;;10555992;28;20944;-87
2023/08/15 10:20:36;;;;;;;6.15;5.65;;;;;;;;;;10549739;28;20427;-86
2023/08/15 10:25:40;;;;;;;6.28;5.78;;;;;;;;;;10558005;28;20436;-87
2023/08/15 10:30:46;;;;;;;7.00;6.30;;;;;;;;;;10570861;28;20464;-86
2023/08/15 10:36:05;;;;;;;7.60;6.95;;;;;;;;;;10560804;28;20859;-87
2023/08/15 10:41:13;;;;;;;6.10;5.60;;;;;;;;;;10562810;28;21082;-88
2023/08/15 10:46:18;;;;;;;6.43;5.88;;;;;;;;;;10556394;28;20458;-87
2023/08/15 10:51:22;;;;;;;6.63;5.75;;;;;;;;;;10570106;28;20911;-87
2023/08/15 10:56:27;;;;;;;6.40;5.80;;;;;;;;;;10553617;28;20408;-88
2023/08/15 11:01:32;;;;;;;6.80;6.20;;;;;;;;;;10558225;28;20892;-88
2023/08/15 11:06:41;;;;;;;6.53;5.93;;;;;;;;;;10567144;28;20947;-87
2023/08/15 11:11:44;;;;;;;6.80;6.10;;;;;;;;;;10560201;27;20398;-87
2023/08/15 11:16:48;;;;;;;7.20;6.60;;;;;;;;;;10561175;28;20404;-86
2023/08/15 11:21:51;;;;;;;6.07;5.57;;;;;;;;;;10565818;28;20448;-87
2023/08/15 11:26:53;;;;;;;6.83;6.23;;;;;;;;;;10566486;28;20453;-88
2023/08/15 11:32:00;;;;;;;6.60;5.90;;;;;;;;;;10557005;28;20443;-88
2023/08/15 11:37:03;;;;;;;6.88;6.28;;;;;;;;;;10549755;28;20848;-87
2023/08/15 11:42:05;;;;;;;6.35;5.85;;;;;;;;;;10559681;28;20620;-88
2023/08/15 11:47:13;;;;;;;6.53;5.93;;;;;;;;;;10561141;28;20392;-86
2023/08/15 11:52:17;;;;;;;7.43;5.93;;;;;;;;;;10554384;28;20424;-86
2023/08/15 11:57:33;;;;;;;6.38;5.85;;;;;;;;;;10558522;28;20463;-87
2023/08/15 12:02:43;;;;;;;6.93;6.23;;;;;;;;;;10549163;28;20438;-87
2023/08/15 12:07:47;;;;;;;6.40;5.77;;;;;;;;;;10550459;28;20400;-87
2023/08/15 12:12:49;;;;;;;6.43;5.82;;;;;;;;;;10562623;28;20809;-87
2023/08/15 12:17:53;;;;;;;6.15;5.63;;;;;;;;;;10555343;28;20449;-88
2023/08/15 12:22:55;;;;;;;6.38;5.78;;;;;;;;;;10564036;28;20419;-88
2023/08/15 12:27:58;;;;;;;6.75;6.15;;;;;;;;;;10555957;28;20753;-87
2023/08/15 12:33:02;;;;;;;6.22;5.70;;;;;;;;;;10567506;28;20407;-88
2023/08/15 12:38:04;;;;;;;6.30;5.80;;;;;;;;;;10550014;28;20454;-88
2023/08/15 12:43:07;;;;;;;6.63;6.03;;;;;;;;;;10562801;28;20422;-87
2023/08/15 12:48:11;;;;;;;6.68;5.97;;;;;;;;;;10563034;28;20404;-88
2023/08/15 12:53:13;;;;;;;6.50;5.90;;;;;;;;;;10551534;22;20477;-88
2023/08/15 12:58:15;;;;;;;5.95;5.55;;;;;;;;;;10425486;28;20409;-87
2023/08/15 13:03:19;;;;;;;6.15;5.57;;;;;;;;;;10427805;28;20456;-88
2023/08/15 13:08:25;;;;;;;5.93;5.40;;;;;;;;;;10429803;28;20482;-87
2023/08/15 13:13:27;;;;;;;6.18;5.63;;;;;;;;;;10422992;28;20455;-87
2023/08/15 13:18:31;;;;;;;6.37;5.83;;;;;;;;;;10425706;28;20411;-86
2023/08/15 13:23:34;;;;;;;6.13;5.65;;;;;;;;;;10432219;28;20508;-87
2023/08/15 13:28:37;;;;;;;6.17;5.50;;;;;;;;;;10429726;28;20402;-89
2023/08/15 13:33:42;;;;;;;6.00;5.50;;;;;;;;;;10433448;28;20459;-88
2023/08/15 13:38:44;;;;;;;5.85;5.40;;;;;;;;;;10429161;28;20469;-88
2023/08/15 13:43:46;;;;;;;6.13;5.53;;;;;;;;;;10432438;28;20450;-88
2023/08/15 13:48:50;;;;;;;6.10;5.60;;;;;;;;;;10427566;28;20475;-88
2023/08/15 13:53:53;;;;;;;6.00;5.50;;;;;;;;;;10434612;28;20412;-88
2023/08/15 13:58:55;;;;;;;6.03;5.53;;;;;;;;;;10438344;28;20409;-87
2023/08/15 14:03:59;;;;;;;6.55;5.95;;;;;;;;;;10440378;28;20405;-89
2023/08/15 14:09:01;;;;;;;5.72;5.13;;;;;;;;;;10416135;28;20414;-88
2023/08/15 14:14:04;;;;;;;6.00;5.40;;;;;;;;;;10417656;28;20409;-88
2023/08/15 14:19:08;;;;;;;5.85;5.35;;;;;;;;;;10416881;28;20410;-88
2023/08/15 14:24:10;;;;;;;5.90;5.50;;;;;;;;;;10434591;28;20477;-88
2023/08/15 14:29:13;;;;;;;5.83;5.33;;;;;;;;;;10440577;28;20778;-88
2023/08/15 14:34:17;;;;;;;6.20;5.60;;;;;;;;;;10428117;28;20409;-87
2023/08/15 14:39:20;;;;;;;5.50;5.00;;;;;;;;;;10435374;28;20404;-88
2023/08/15 14:44:22;;;;;;;5.53;5.10;;;;;;;;;;10447471;28;20409;-88
2023/08/15 14:49:26;;;;;;;5.57;5.18;;;;;;;;;;10429129;28;20421;-88
2023/08/15 14:54:28;;;;;;;5.70;5.20;;;;;;;;;;10437830;28;20417;-88
2023/08/15 14:59:31;;;;;;;6.35;5.40;;;;;;;;;;10427073;28;20421;-88
2023/08/15 15:04:34;;;;;;;5.60;5.18;;;;;;;;;;10430331;28;20468;-87
2023/08/15 15:09:37;;;;;;;5.65;5.15;;;;;;;;;;10437365;28;20566;-88
2023/08/15 15:14:39;;;;;;;5.63;5.22;;;;;;;;;;10435989;28;20416;-88
2023/08/15 15:19:43;;;;;;;5.72;5.22;;;;;;;;;;10433332;28;20438;-88
2023/08/15 15:24:46;;;;;;;6.27;5.67;;;;;;;;;;10428980;28;20442;-88
2023/08/15 15:29:48;;;;;;;5.83;5.33;;;;;;;;;;10428997;28;20465;-88
2023/08/15 15:34:52;;;;;;;6.20;5.70;;;;;;;;;;10413713;28;20452;-88
2023/08/15 15:39:54;;;;;;;5.95;5.40;;;;;;;;;;10414162;28;20429;-87
2023/08/15 15:44:56;;;;;;;5.95;5.45;;;;;;;;;;10413247;28;20421;-88
2023/08/15 15:50:00;;;;;;;6.68;5.45;;;;;;;;;;10437005;28;21067;-88
2023/08/15 15:55:03;;;;;;;5.72;5.32;;;;;;;;;;10433862;28;20424;-88
2023/08/15 16:00:12;;;;;;;6.13;5.63;;;;;;;;;;10431156;28;21103;-89
2023/08/15 16:05:16;;;;;;;6.70;5.78;;;;;;;;;;10431263;28;20409;-88
2023/08/15 16:10:19;;;;;;;5.88;5.45;;;;;;;;;;10432896;28;20883;-87
2023/08/15 16:15:21;;;;;;;6.50;5.90;;;;;;;;;;10431044;28;20813;-87
2023/08/15 16:20:25;;;;;;;6.03;5.63;;;;;;;;;;10433503;28;20431;-86
2023/08/15 16:25:28;;;;;;;6.78;5.93;;;;;;;;;;10412665;28;20417;-87
2023/08/15 16:30:30;;;;;;;6.90;6.40;;;;;;;;;;10411276;28;20830;-88
2023/08/15 16:35:34;;;;;;;6.75;6.00;;;;;;;;;;10426989;28;20396;-88
2023/08/15 16:40:36;;;;;;;6.93;6.32;;;;;;;;;;10436150;28;20424;-86
2023/08/15 16:45:40;;;;;;;6.80;6.30;;;;;;;;;;10434929;28;20438;-87
2023/08/15 16:50:43;;;;;;;6.55;6.05;;;;;;;;;;10430433;28;20448;-88
2023/08/15 16:55:46;;;;;;;6.60;6.00;;;;;;;;;;10428159;28;20465;-87
2023/08/15 17:00:48;;;;;;;7.03;6.43;;;;;;;;;;10433835;28;20472;-88
2023/08/15 17:05:52;;;;;;;7.10;6.50;;;;;;;;;;10429866;28;20400;-88
2023/08/15 17:10:54;;;;;;;6.90;6.18;;;;;;;;;;10432787;28;20462;-88
2023/08/15 17:15:56;;;;;;;6.97;6.37;;;;;;;;;;10429801;28;20410;-87
2023/08/15 17:21:00;;;;;;;7.13;6.43;;;;;;;;;;10410432;28;20988;-87
2023/08/15 17:26:04;;;;;;;7.77;7.07;;;;;;;;;;10411290;28;20406;-87
2023/08/15 17:31:06;;;;;;;7.87;7.23;;;;;;;;;;10430605;28;20407;-87
2023/08/15 17:36:10;;;;;;;7.53;6.93;;;;;;;;;;10436751;28;20489;-88
2023/08/15 17:41:12;;;;;;;7.33;6.73;;;;;;;;;;10436752;28;20425;-88
2023/08/15 17:46:15;;;;;;;8.07;7.27;;;;;;;;;;10440226;28;20440;-87
2023/08/15 17:51:19;;;;;;;7.78;7.15;;;;;;;;;;10439273;28;20399;-87
2023/08/15 17:56:22;;;;;;;9.40;7.75;;;;;;;;;;10439713;28;20469;-87
2023/08/15 18:01:26;;;;;;;8.85;7.82;;;;;;;;;;10435026;28;20523;-88
2023/08/15 18:06:30;;;;;;;8.88;8.07;;;;;;;;;;10436330;28;20459;-88
2023/08/15 18:11:32;;;;;;;8.35;7.55;;;;;;;;;;10435366;28;20483;-88
2023/08/15 18:16:34;;;;;;;10.35;8.52;;;;;;;;;;10436501;28;20410;-88
2023/08/15 18:21:38;;;;;;;9.70;8.30;;;;;;;;;;10437712;28;20424;-87
2023/08/15 18:26:41;;;;;;;10.13;9.18;;;;;;;;;;10437118;28;20465;-88
2023/08/15 18:31:43;;;;;;;12.00;10.90;;;;;;;;;;10435698;28;20413;-87
2023/08/15 18:36:47;;;;;;;12.55;11.38;;;;;;;;;;10439186;28;20435;-87
2023/08/15 18:41:49;;;;;;;10.03;9.03;;;;;;;;;;10416462;28;20425;-87
2023/08/15 18:46:51;;;;;;;10.77;9.23;;;;;;;;;;10417171;28;20410;-87
2023/08/15 18:51:55;;;;;;;9.95;8.98;;;;;;;;;;10436262;28;20456;-88
2023/08/15 18:56:57;;;;;;;9.80;8.80;;;;;;;;;;10436393;28;20467;-87
2023/08/15 19:02:00;;;;;;;10.03;8.63;;;;;;;;;;10435167;28;20422;-87
2023/08/15 19:07:05;;;;;;;9.43;8.63;;;;;;;;;;10436459;28;20462;-87
2023/08/15 19:12:07;;;;;;;9.85;8.95;;;;;;;;;;10441737;28;20963;-87
2023/08/15 19:17:10;;;;;;;10.10;9.07;;;;;;;;;;10435991;28;20401;-87
2023/08/15 19:22:13;;;;;;;10.55;9.38;;;;;;;;;;10434488;28;20450;-87
2023/08/15 19:27:16;;;;;;;11.60;10.50;;;;;;;;;;10435262;28;20411;-86
2023/08/15 19:32:18;;;;;;;11.68;10.48;;;;;;;;;;10433076;28;20432;-87
2023/08/15 19:37:22;;;;;;;11.60;10.50;;;;;;;;;;10432372;28;20405;-88
2023/08/15 19:42:24;;;;;;;12.27;10.70;;;;;;;;;;10431620;28;20424;-87
2023/08/15 19:47:27;;;;;;;11.60;10.10;;;;;;;;;;10433408;28;21044;-87
2023/08/15 19:52:30;;;;;;;10.38;9.43;;;;;;;;;;10433140;28;20403;-87
2023/08/15 19:57:33;;;;;;;11.32;10.15;;;;;;;;;;10433296;28;20461;-87
2023/08/15 20:02:36;;;;;;;10.30;9.40;;;;;;;;;;10434909;28;20477;-87
2023/08/15 20:07:39;;;;;;;10.45;9.45;;;;;;;;;;10412192;28;20402;-87
2023/08/15 20:12:42;;;;;;;10.20;9.20;;;;;;;;;;10412084;28;20402;-87
2023/08/15 20:17:44;;;;;;;10.20;9.10;;;;;;;;;;10429504;28;20737;-87
2023/08/15 20:22:48;;;;;;;10.07;9.03;;;;;;;;;;10432268;28;20427;-87
2023/08/15 20:27:50;;;;;;;11.05;9.25;;;;;;;;;;10430225;28;20433;-87
2023/08/15 20:32:52;;;;;;;13.07;9.30;;;;;;;;;;10433239;28;20415;-87
2023/08/15 20:37:56;;;;;;;10.18;9.10;;;;;;;;;;10430769;28;20471;-87
2023/08/15 20:42:58;;;;;;;10.10;8.77;;;;;;;;;;10432657;28;20486;-87
2023/08/15 20:48:01;;;;;;;9.97;8.97;;;;;;;;;;10431848;28;20769;-86
2023/08/15 20:53:05;;;;;;;9.33;8.43;;;;;;;;;;10430404;28;20930;-87
2023/08/15 20:58:07;;;;;;;10.65;9.55;;;;;;;;;;10432516;28;20404;-86
2023/08/15 21:03:09;;;;;;;10.77;9.68;;;;;;;;;;10428485;28;20483;-87
2023/08/15 21:08:13;;;;;;;10.88;9.88;;;;;;;;;;10432260;28;20434;-87
2023/08/15 21:13:15;;;;;;;11.27;10.07;;;;;;;;;;10430170;28;20758;-85
2023/08/15 21:18:17;;;;;;;11.77;10.63;;;;;;;;;;10429885;28;20470;-87
2023/08/15 21:23:21;;;;;;;11.35;10.05;;;;;;;;;;10432072;28;20426;-87
2023/08/15 21:28:23;;;;;;;11.82;10.50;;;;;;;;;;10432477;28;20411;-87
2023/08/15 21:33:26;;;;;;;11.90;10.00;;;;;;;;;;10428471;28;20901;-86
2023/08/15 21:38:29;;;;;;;11.88;10.18;;;;;;;;;;10429276;28;20471;-87
2023/08/15 21:43:32;;;;;;;10.73;9.73;;;;;;;;;;10429760;28;20471;-87
2023/08/15 21:48:34;;;;;;;11.50;10.40;;;;;;;;;;10430473;28;20405;-86
2023/08/15 21:53:38;;;;;;;10.57;9.60;;;;;;;;;;10427931;28;20417;-87
2023/08/15 21:58:40;;;;;;;10.20;9.30;;;;;;;;;;10431460;28;20484;-87
2023/08/15 22:03:42;;;;;;;10.40;9.33;;;;;;;;;;10408604;28;20425;-87
2023/08/15 22:08:46;;;;;;;9.50;8.60;;;;;;;;;;10408469;28;20890;-87
2023/08/15 22:13:48;;;;;;;9.63;8.63;;;;;;;;;;10426985;28;20416;-86
2023/08/15 22:18:50;;;;;;;9.77;8.95;;;;;;;;;;10433950;28;21220;-86
2023/08/15 22:23:54;;;;;;;9.93;8.95;;;;;;;;;;10436218;28;20425;-87
2023/08/15 22:28:56;;;;;;;9.40;8.60;;;;;;;;;;10437319;28;21073;-86
2023/08/15 22:33:59;;;;;;;8.80;8.00;;;;;;;;;;10434796;28;20459;-87
2023/08/15 22:39:02;;;;;;;8.60;7.80;;;;;;;;;;10436921;28;20404;-86
2023/08/15 22:44:05;;;;;;;9.53;8.63;;;;;;;;;;10435272;28;20433;-87
2023/08/15 22:49:07;;;;;;;9.73;8.90;;;;;;;;;;10434574;28;20411;-86
2023/08/15 22:54:11;;;;;;;9.52;8.63;;;;;;;;;;10433152;28;20407;-87
2023/08/15 22:59:13;;;;;;;9.53;8.67;;;;;;;;;;10433588;28;20432;-86
2023/08/15 23:04:16;;;;;;;10.43;8.32;;;;;;;;;;10436421;28;20425;-87
2023/08/15 23:09:20;;;;;;;10.82;8.98;;;;;;;;;;10435199;28;20408;-87
2023/08/15 23:14:22;;;;;;;8.97;8.10;;;;;;;;;;10434715;28;20414;-88
2023/08/15 23:19:27;;;;;;;8.73;7.93;;;;;;;;;;10433995;28;21532;-86
2023/08/15 23:24:31;;;;;;;9.20;8.30;;;;;;;;;;10435827;28;20977;-86
2023/08/15 23:29:33;;;;;;;8.90;8.00;;;;;;;;;;10412832;28;20439;-87
2023/08/15 23:34:35;;;;;;;8.55;7.75;;;;;;;;;;10417087;28;20766;-87
2023/08/15 23:39:39;;;;;;;9.45;8.00;;;;;;;;;;10428311;28;20411;-86
2023/08/15 23:44:41;;;;;;;8.00;7.20;;;;;;;;;;10435099;28;20435;-86
2023/08/15 23:49:43;;;;;;;8.23;7.43;;;;;;;;;;10433858;28;20473;-86
2023/08/15 23:54:47;;;;;;;7.78;6.97;;;;;;;;;;10430577;28;20443;-87
2023/08/15 23:59:50;;;;;;;7.43;6.47;;;;;;;;;;10434049;28;20440;-86
